sensor_id;sensor_type;location;lat;lon;timestamp;pressure;altitude;pressure_sealevel;temperature;humidity
63691;BME280;49837;57.280;27.070;2023-05-02T00:00:54;100218.23;;;5.88;69.24
63691;BME280;49837;57.280;27.070;2023-05-02T00:01:54;100217.84;;;5.87;69.61
63691;BME280;49837;57.280;27.070;2023-05-02T00:02:54;100213.69;;;5.78;70.16
63691;BME280;49837;57.280;27.070;2023-05-02T00:03:55;100219.58;;;5.77;69.95
63691;BME280;49837;57.280;27.070;2023-05-02T00:04:55;100219.05;;;5.81;69.75
63691;BME280;49837;57.280;27.070;2023-05-02T00:05:56;100216.08;;;5.82;69.93
63691;BME280;49837;57.280;27.070;2023-05-02T00:06:56;100222.36;;;5.83;69.52
63691;BME280;49837;57.280;27.070;2023-05-02T00:07:57;100217.45;;;5.83;69.36
63691;BME280;49837;57.280;27.070;2023-05-02T00:08:57;100214.64;;;5.83;69.88
63691;BME280;49837;57.280;27.070;2023-05-02T00:09:57;100217.2;;;5.74;70.59
63691;BME280;49837;57.280;27.070;2023-05-02T00:10:57;100213.8;;;5.68;70.68
63691;BME280;49837;57.280;27.070;2023-05-02T00:11:58;100213.55;;;5.67;70.73
63691;BME280;49837;57.280;27.070;2023-05-02T00:12:58;100215.05;;;5.67;70.52
63691;BME280;49837;57.280;27.070;2023-05-02T00:13:59;100212.71;;;5.68;70.76
63691;BME280;49837;57.280;27.070;2023-05-02T00:14:59;100212.3;;;5.59;70.91
63691;BME280;49837;57.280;27.070;2023-05-02T00:15:59;100209.73;;;5.6;71.01
63691;BME280;49837;57.280;27.070;2023-05-02T00:17:00;100213.59;;;5.62;70.57
63691;BME280;49837;57.280;27.070;2023-05-02T00:18:00;100215.83;;;5.64;70.18
63691;BME280;49837;57.280;27.070;2023-05-02T00:19:00;100213.3;;;5.68;70.22
63691;BME280;49837;57.280;27.070;2023-05-02T00:20:01;100215.11;;;5.7;70.57
63691;BME280;49837;57.280;27.070;2023-05-02T00:21:01;100216.42;;;5.7;70.34
63691;BME280;49837;57.280;27.070;2023-05-02T00:22:02;100218.27;;;5.68;70.67
63691;BME280;49837;57.280;27.070;2023-05-02T00:23:02;100216.8;;;5.64;71.01
63691;BME280;49837;57.280;27.070;2023-05-02T00:24:03;100213.12;;;5.69;70.38
63691;BME280;49837;57.280;27.070;2023-05-02T00:25:03;100216.92;;;5.7;70.58
63691;BME280;49837;57.280;27.070;2023-05-02T00:26:07;100214.8;;;5.66;70.51
63691;BME280;49837;57.280;27.070;2023-05-02T00:27:05;100209.52;;;5.66;70.52
63691;BME280;49837;57.280;27.070;2023-05-02T00:28:05;100210.05;;;5.62;71.06
63691;BME280;49837;57.280;27.070;2023-05-02T00:29:06;100208.56;;;5.59;71.09
63691;BME280;49837;57.280;27.070;2023-05-02T00:30:07;100209.39;;;5.6;70.81
63691;BME280;49837;57.280;27.070;2023-05-02T00:31:07;100208.83;;;5.58;71.95
63691;BME280;49837;57.280;27.070;2023-05-02T00:32:07;100205.8;;;5.53;71.67
63691;BME280;49837;57.280;27.070;2023-05-02T00:33:07;100208.06;;;5.52;71.41
63691;BME280;49837;57.280;27.070;2023-05-02T00:34:08;100211.67;;;5.56;71.43
63691;BME280;49837;57.280;27.070;2023-05-02T00:35:09;100204.91;;;5.62;71.12
63691;BME280;49837;57.280;27.070;2023-05-02T00:36:16;100207.05;;;5.63;70.94
63691;BME280;49837;57.280;27.070;2023-05-02T00:37:13;100208.23;;;5.59;71.09
63691;BME280;49837;57.280;27.070;2023-05-02T00:38:14;100204.77;;;5.6;70.71
63691;BME280;49837;57.280;27.070;2023-05-02T00:39:14;100200.2;;;5.61;70.97
63691;BME280;49837;57.280;27.070;2023-05-02T00:40:15;100200.28;;;5.61;70.92
63691;BME280;49837;57.280;27.070;2023-05-02T00:41:16;100201.58;;;5.64;70.45
63691;BME280;49837;57.280;27.070;2023-05-02T00:42:15;100201.88;;;5.62;70.73
63691;BME280;49837;57.280;27.070;2023-05-02T00:43:15;100202.48;;;5.64;70.64
63691;BME280;49837;57.280;27.070;2023-05-02T00:44:16;100200.51;;;5.64;70.53
63691;BME280;49837;57.280;27.070;2023-05-02T00:45:16;100198.81;;;5.6;70.47
63691;BME280;49837;57.280;27.070;2023-05-02T00:46:16;100194.19;;;5.6;70.2
63691;BME280;49837;57.280;27.070;2023-05-02T00:47:17;100199.14;;;5.6;70.65
63691;BME280;49837;57.280;27.070;2023-05-02T00:48:17;100199.58;;;5.58;70.65
63691;BME280;49837;57.280;27.070;2023-05-02T00:49:18;100194.43;;;5.59;70.66
63691;BME280;49837;57.280;27.070;2023-05-02T00:50:18;100196.79;;;5.54;70.97
63691;BME280;49837;57.280;27.070;2023-05-02T00:51:18;100196.8;;;5.52;70.98
63691;BME280;49837;57.280;27.070;2023-05-02T00:52:19;100199.69;;;5.52;71.09
63691;BME280;49837;57.280;27.070;2023-05-02T00:53:19;100193.9;;;5.52;71.09
63691;BME280;49837;57.280;27.070;2023-05-02T00:54:20;100196.0;;;5.49;71.47
63691;BME280;49837;57.280;27.070;2023-05-02T00:55:20;100190.5;;;5.46;71.4
63691;BME280;49837;57.280;27.070;2023-05-02T00:56:20;100188.27;;;5.42;71.59
63691;BME280;49837;57.280;27.070;2023-05-02T00:57:21;100187.94;;;5.42;71.5
63691;BME280;49837;57.280;27.070;2023-05-02T00:58:21;100189.02;;;5.46;71.24
63691;BME280;49837;57.280;27.070;2023-05-02T00:59:21;100189.51;;;5.44;71.52
63691;BME280;49837;57.280;27.070;2023-05-02T01:00:29;100188.4;;;5.48;71.34
63691;BME280;49837;57.280;27.070;2023-05-02T01:02:47;100183.22;;;5.45;71.54
63691;BME280;49837;57.280;27.070;2023-05-02T01:06:52;100183.39;;;5.44;71.47
63691;BME280;49837;57.280;27.070;2023-05-02T01:08:55;100182.39;;;5.37;71.84
63691;BME280;49837;57.280;27.070;2023-05-02T01:10:05;100182.56;;;5.36;71.42
63691;BME280;49837;57.280;27.070;2023-05-02T01:13:02;100179.13;;;5.3;71.87
63691;BME280;49837;57.280;27.070;2023-05-02T01:13:54;100180.38;;;5.28;71.69
63691;BME280;49837;57.280;27.070;2023-05-02T01:14:55;100178.9;;;5.27;72.05
63691;BME280;49837;57.280;27.070;2023-05-02T01:15:55;100180.41;;;5.27;71.91
63691;BME280;49837;57.280;27.070;2023-05-02T01:16:55;100173.77;;;5.28;71.59
63691;BME280;49837;57.280;27.070;2023-05-02T01:17:55;100176.14;;;5.29;71.93
63691;BME280;49837;57.280;27.070;2023-05-02T01:18:56;100173.86;;;5.25;72.12
63691;BME280;49837;57.280;27.070;2023-05-02T01:19:57;100173.7;;;5.27;71.58
63691;BME280;49837;57.280;27.070;2023-05-02T01:21:09;100172.61;;;5.27;71.67
63691;BME280;49837;57.280;27.070;2023-05-02T01:21:59;100172.54;;;5.25;71.54
63691;BME280;49837;57.280;27.070;2023-05-02T01:23:03;100175.22;;;5.23;71.73
63691;BME280;49837;57.280;27.070;2023-05-02T01:29:21;100171.84;;;5.2;71.62
63691;BME280;49837;57.280;27.070;2023-05-02T01:30:21;100167.34;;;5.15;71.97
63691;BME280;49837;57.280;27.070;2023-05-02T01:31:23;100170.38;;;5.16;72.17
63691;BME280;49837;57.280;27.070;2023-05-02T01:32:22;100169.24;;;5.13;71.99
63691;BME280;49837;57.280;27.070;2023-05-02T01:33:23;100168.88;;;5.07;72.28
63691;BME280;49837;57.280;27.070;2023-05-02T01:34:22;100170.56;;;5.05;72.74
63691;BME280;49837;57.280;27.070;2023-05-02T01:35:23;100171.87;;;5.04;72.31
63691;BME280;49837;57.280;27.070;2023-05-02T01:36:24;100168.25;;;5.01;72.73
63691;BME280;49837;57.280;27.070;2023-05-02T01:37:25;100166.29;;;4.98;72.95
63691;BME280;49837;57.280;27.070;2023-05-02T01:38:23;100169.75;;;4.99;72.74
63691;BME280;49837;57.280;27.070;2023-05-02T01:39:25;100164.83;;;4.95;73.0
63691;BME280;49837;57.280;27.070;2023-05-02T01:40:24;100164.27;;;4.91;73.08
63691;BME280;49837;57.280;27.070;2023-05-02T01:41:26;100163.87;;;4.94;72.96
63691;BME280;49837;57.280;27.070;2023-05-02T01:42:25;100163.02;;;4.95;72.86
63691;BME280;49837;57.280;27.070;2023-05-02T01:43:25;100163.11;;;4.95;73.16
63691;BME280;49837;57.280;27.070;2023-05-02T01:44:26;100163.09;;;4.96;73.4
63691;BME280;49837;57.280;27.070;2023-05-02T01:45:27;100165.73;;;4.95;73.34
63691;BME280;49837;57.280;27.070;2023-05-02T01:46:30;100162.97;;;4.91;73.09
63691;BME280;49837;57.280;27.070;2023-05-02T01:47:30;100163.28;;;4.93;72.9
63691;BME280;49837;57.280;27.070;2023-05-02T01:48:30;100159.39;;;4.93;72.91
63691;BME280;49837;57.280;27.070;2023-05-02T01:49:32;100156.56;;;4.95;72.54
63691;BME280;49837;57.280;27.070;2023-05-02T01:50:30;100157.69;;;4.98;72.47
63691;BME280;49837;57.280;27.070;2023-05-02T01:51:32;100159.28;;;4.98;72.44
63691;BME280;49837;57.280;27.070;2023-05-02T01:52:31;100150.42;;;4.99;72.56
63691;BME280;49837;57.280;27.070;2023-05-02T01:53:32;100151.03;;;4.96;72.65
63691;BME280;49837;57.280;27.070;2023-05-02T01:54:34;100153.52;;;4.91;72.85
63691;BME280;49837;57.280;27.070;2023-05-02T01:55:35;100155.3;;;4.89;73.03
63691;BME280;49837;57.280;27.070;2023-05-02T01:56:34;100154.15;;;4.88;73.22
63691;BME280;49837;57.280;27.070;2023-05-02T01:57:34;100153.33;;;4.88;73.18
63691;BME280;49837;57.280;27.070;2023-05-02T01:58:35;100154.72;;;4.89;73.2
63691;BME280;49837;57.280;27.070;2023-05-02T01:59:34;100152.69;;;4.82;73.49
63691;BME280;49837;57.280;27.070;2023-05-02T02:00:35;100152.96;;;4.8;73.51
63691;BME280;49837;57.280;27.070;2023-05-02T02:01:36;100152.52;;;4.81;73.45
63691;BME280;49837;57.280;27.070;2023-05-02T02:02:36;100153.04;;;4.79;73.68
63691;BME280;49837;57.280;27.070;2023-05-02T02:03:35;100149.83;;;4.76;73.65
63691;BME280;49837;57.280;27.070;2023-05-02T02:04:36;100149.66;;;4.76;73.58
63691;BME280;49837;57.280;27.070;2023-05-02T02:05:36;100149.09;;;4.76;73.95
63691;BME280;49837;57.280;27.070;2023-05-02T02:06:37;100150.34;;;4.72;73.48
63691;BME280;49837;57.280;27.070;2023-05-02T02:07:37;100151.17;;;4.72;73.29
63691;BME280;49837;57.280;27.070;2023-05-02T02:08:37;100149.55;;;4.71;73.52
63691;BME280;49837;57.280;27.070;2023-05-02T02:09:38;100148.88;;;4.67;73.72
63691;BME280;49837;57.280;27.070;2023-05-02T02:12:49;100146.67;;;4.55;74.41
63691;BME280;49837;57.280;27.070;2023-05-02T02:13:48;100149.36;;;4.58;74.39
63691;BME280;49837;57.280;27.070;2023-05-02T02:14:55;100140.39;;;4.52;74.79
63691;BME280;49837;57.280;27.070;2023-05-02T02:15:52;100142.79;;;4.52;74.83
63691;BME280;49837;57.280;27.070;2023-05-02T02:16:55;100144.84;;;4.53;74.67
63691;BME280;49837;57.280;27.070;2023-05-02T02:18:03;100145.6;;;4.51;74.91
63691;BME280;49837;57.280;27.070;2023-05-02T02:18:56;100147.38;;;4.57;74.11
63691;BME280;49837;57.280;27.070;2023-05-02T02:20:00;100146.7;;;4.63;74.36
63691;BME280;49837;57.280;27.070;2023-05-02T02:20:59;100145.22;;;4.58;74.51
63691;BME280;49837;57.280;27.070;2023-05-02T02:22:02;100143.36;;;4.54;74.16
63691;BME280;49837;57.280;27.070;2023-05-02T02:23:05;100144.88;;;4.49;74.81
63691;BME280;49837;57.280;27.070;2023-05-02T02:24:05;100135.73;;;4.44;74.42
63691;BME280;49837;57.280;27.070;2023-05-02T02:25:09;100139.86;;;4.46;74.68
63691;BME280;49837;57.280;27.070;2023-05-02T02:26:08;100134.97;;;4.48;74.94
63691;BME280;49837;57.280;27.070;2023-05-02T02:27:08;100139.35;;;4.46;74.39
63691;BME280;49837;57.280;27.070;2023-05-02T02:28:08;100132.34;;;4.46;74.58
63691;BME280;49837;57.280;27.070;2023-05-02T02:29:09;100135.44;;;4.49;74.59
63691;BME280;49837;57.280;27.070;2023-05-02T02:30:10;100133.31;;;4.49;74.03
63691;BME280;49837;57.280;27.070;2023-05-02T02:31:09;100135.22;;;4.49;74.25
63691;BME280;49837;57.280;27.070;2023-05-02T02:32:10;100133.55;;;4.49;74.39
63691;BME280;49837;57.280;27.070;2023-05-02T02:33:10;100133.16;;;4.46;74.56
63691;BME280;49837;57.280;27.070;2023-05-02T02:34:10;100132.1;;;4.45;74.22
63691;BME280;49837;57.280;27.070;2023-05-02T02:35:11;100137.27;;;4.49;73.87
63691;BME280;49837;57.280;27.070;2023-05-02T02:36:20;100136.34;;;4.52;74.22
63691;BME280;49837;57.280;27.070;2023-05-02T02:37:19;100141.95;;;4.55;73.7
63691;BME280;49837;57.280;27.070;2023-05-02T02:41:36;100140.77;;;4.7;72.54
63691;BME280;49837;57.280;27.070;2023-05-02T02:49:50;100133.78;;;4.67;72.94
63691;BME280;49837;57.280;27.070;2023-05-02T02:56:09;100131.88;;;4.69;72.26
63691;BME280;49837;57.280;27.070;2023-05-02T02:57:27;100130.5;;;4.75;72.04
63691;BME280;49837;57.280;27.070;2023-05-02T03:00:20;100122.2;;;4.82;71.57
63691;BME280;49837;57.280;27.070;2023-05-02T03:01:19;100124.45;;;4.89;71.23
63691;BME280;49837;57.280;27.070;2023-05-02T03:02:21;100122.94;;;4.93;71.11
63691;BME280;49837;57.280;27.070;2023-05-02T03:03:23;100127.52;;;4.91;71.31
63691;BME280;49837;57.280;27.070;2023-05-02T03:04:24;100122.89;;;4.88;71.11
63691;BME280;49837;57.280;27.070;2023-05-02T03:05:23;100123.28;;;4.9;71.08
63691;BME280;49837;57.280;27.070;2023-05-02T03:06:24;100124.12;;;4.9;71.5
63691;BME280;49837;57.280;27.070;2023-05-02T03:07:26;100119.63;;;4.83;71.93
63691;BME280;49837;57.280;27.070;2023-05-02T03:08:24;100120.47;;;4.8;71.97
63691;BME280;49837;57.280;27.070;2023-05-02T03:09:25;100119.22;;;4.83;71.98
63691;BME280;49837;57.280;27.070;2023-05-02T03:10:25;100116.66;;;4.81;71.78
63691;BME280;49837;57.280;27.070;2023-05-02T03:11:25;100116.98;;;4.82;71.78
63691;BME280;49837;57.280;27.070;2023-05-02T03:12:26;100121.83;;;4.87;71.51
63691;BME280;49837;57.280;27.070;2023-05-02T03:13:26;100117.11;;;4.88;71.62
63691;BME280;49837;57.280;27.070;2023-05-02T03:14:26;100120.94;;;4.84;72.0
63691;BME280;49837;57.280;27.070;2023-05-02T03:17:29;100113.69;;;4.91;71.1
63691;BME280;49837;57.280;27.070;2023-05-02T03:18:30;100117.45;;;4.98;70.5
63691;BME280;49837;57.280;27.070;2023-05-02T03:19:30;100116.59;;;5.02;70.57
63691;BME280;49837;57.280;27.070;2023-05-02T03:20:30;100116.4;;;5.06;70.2
63691;BME280;49837;57.280;27.070;2023-05-02T03:21:31;100115.91;;;5.04;70.58
63691;BME280;49837;57.280;27.070;2023-05-02T03:22:31;100113.47;;;5.02;70.77
63691;BME280;49837;57.280;27.070;2023-05-02T03:23:32;100114.31;;;4.99;71.01
63691;BME280;49837;57.280;27.070;2023-05-02T03:24:32;100116.58;;;4.93;71.2
63691;BME280;49837;57.280;27.070;2023-05-02T03:25:32;100111.97;;;4.93;70.96
63691;BME280;49837;57.280;27.070;2023-05-02T03:26:33;100113.06;;;4.99;70.62
63691;BME280;49837;57.280;27.070;2023-05-02T03:27:33;100111.95;;;5.03;70.78
63691;BME280;49837;57.280;27.070;2023-05-02T03:28:33;100111.3;;;5.04;70.39
63691;BME280;49837;57.280;27.070;2023-05-02T03:29:34;100106.73;;;5.04;70.5
63691;BME280;49837;57.280;27.070;2023-05-02T03:30:34;100105.66;;;5.08;70.31
63691;BME280;49837;57.280;27.070;2023-05-02T03:31:34;100108.11;;;5.08;70.42
63691;BME280;49837;57.280;27.070;2023-05-02T03:32:35;100107.02;;;5.12;69.99
63691;BME280;49837;57.280;27.070;2023-05-02T03:33:35;100103.0;;;5.17;69.79
63691;BME280;49837;57.280;27.070;2023-05-02T03:34:36;100104.54;;;5.21;69.6
63691;BME280;49837;57.280;27.070;2023-05-02T03:35:36;100101.1;;;5.24;69.05
63691;BME280;49837;57.280;27.070;2023-05-02T03:36:36;100105.33;;;5.27;69.34
63691;BME280;49837;57.280;27.070;2023-05-02T03:37:37;100104.23;;;5.28;69.17
63691;BME280;49837;57.280;27.070;2023-05-02T03:38:37;100102.45;;;5.32;69.24
63691;BME280;49837;57.280;27.070;2023-05-02T03:39:37;100102.06;;;5.3;69.21
63691;BME280;49837;57.280;27.070;2023-05-02T03:40:38;100101.22;;;5.31;69.5
63691;BME280;49837;57.280;27.070;2023-05-02T03:41:38;100101.72;;;5.31;69.77
63691;BME280;49837;57.280;27.070;2023-05-02T03:42:39;100102.33;;;5.29;69.76
63691;BME280;49837;57.280;27.070;2023-05-02T03:43:39;100104.88;;;5.36;69.19
63691;BME280;49837;57.280;27.070;2023-05-02T03:44:39;100097.91;;;5.41;69.29
63691;BME280;49837;57.280;27.070;2023-05-02T03:45:40;100103.61;;;5.5;69.2
63691;BME280;49837;57.280;27.070;2023-05-02T03:46:40;100103.44;;;5.6;68.1
63691;BME280;49837;57.280;27.070;2023-05-02T03:47:40;100102.33;;;5.69;67.75
63691;BME280;49837;57.280;27.070;2023-05-02T03:48:41;100101.38;;;5.72;67.7
63691;BME280;49837;57.280;27.070;2023-05-02T03:49:41;100106.3;;;5.75;67.97
63691;BME280;49837;57.280;27.070;2023-05-02T03:50:41;100108.52;;;5.79;67.66
63691;BME280;49837;57.280;27.070;2023-05-02T03:51:42;100110.14;;;5.89;67.29
63691;BME280;49837;57.280;27.070;2023-05-02T03:52:42;100107.84;;;5.92;67.23
63691;BME280;49837;57.280;27.070;2023-05-02T03:53:43;100106.84;;;5.93;67.08
63691;BME280;49837;57.280;27.070;2023-05-02T03:54:43;100102.3;;;5.94;67.18
63691;BME280;49837;57.280;27.070;2023-05-02T03:55:43;100100.34;;;5.99;67.08
63691;BME280;49837;57.280;27.070;2023-05-02T03:56:44;100105.03;;;6.03;66.77
63691;BME280;49837;57.280;27.070;2023-05-02T03:57:44;100100.34;;;6.07;66.89
63691;BME280;49837;57.280;27.070;2023-05-02T03:58:45;100105.25;;;6.06;66.23
63691;BME280;49837;57.280;27.070;2023-05-02T03:59:45;100103.11;;;6.05;67.22
63691;BME280;49837;57.280;27.070;2023-05-02T04:00:45;100102.64;;;6.01;67.54
63691;BME280;49837;57.280;27.070;2023-05-02T04:01:48;100102.7;;;6.09;66.92
63691;BME280;49837;57.280;27.070;2023-05-02T04:02:46;100101.39;;;6.16;66.14
63691;BME280;49837;57.280;27.070;2023-05-02T04:03:47;100103.16;;;6.14;66.44
63691;BME280;49837;57.280;27.070;2023-05-02T04:04:48;100100.59;;;6.13;66.37
63691;BME280;49837;57.280;27.070;2023-05-02T04:05:47;100101.16;;;6.14;66.23
63691;BME280;49837;57.280;27.070;2023-05-02T04:06:48;100100.13;;;6.16;65.46
63691;BME280;49837;57.280;27.070;2023-05-02T04:07:48;100099.39;;;6.24;65.04
63691;BME280;49837;57.280;27.070;2023-05-02T04:08:48;100102.32;;;6.28;65.04
63691;BME280;49837;57.280;27.070;2023-05-02T04:09:49;100095.98;;;6.31;65.37
63691;BME280;49837;57.280;27.070;2023-05-02T04:10:50;100098.42;;;6.33;64.91
63691;BME280;49837;57.280;27.070;2023-05-02T04:11:50;100097.17;;;6.4;64.72
63691;BME280;49837;57.280;27.070;2023-05-02T04:12:50;100092.95;;;6.46;65.09
63691;BME280;49837;57.280;27.070;2023-05-02T04:13:51;100093.98;;;6.49;64.3
63691;BME280;49837;57.280;27.070;2023-05-02T04:14:51;100093.34;;;6.54;64.15
63691;BME280;49837;57.280;27.070;2023-05-02T04:15:51;100092.45;;;6.64;64.02
63691;BME280;49837;57.280;27.070;2023-05-02T04:16:51;100090.72;;;6.69;63.91
63691;BME280;49837;57.280;27.070;2023-05-02T04:17:52;100085.47;;;6.72;63.78
63691;BME280;49837;57.280;27.070;2023-05-02T04:18:52;100086.7;;;6.67;63.47
63691;BME280;49837;57.280;27.070;2023-05-02T04:19:52;100081.27;;;6.69;63.68
63691;BME280;49837;57.280;27.070;2023-05-02T04:20:53;100081.57;;;6.76;63.05
63691;BME280;49837;57.280;27.070;2023-05-02T04:21:53;100075.86;;;6.8;62.67
63691;BME280;49837;57.280;27.070;2023-05-02T04:22:54;100078.75;;;6.82;62.79
63691;BME280;49837;57.280;27.070;2023-05-02T04:23:54;100081.33;;;6.85;63.12
63691;BME280;49837;57.280;27.070;2023-05-02T04:24:55;100078.31;;;6.88;62.54
63691;BME280;49837;57.280;27.070;2023-05-02T04:25:55;100080.06;;;6.93;62.24
63691;BME280;49837;57.280;27.070;2023-05-02T04:26:55;100073.48;;;6.95;62.32
63691;BME280;49837;57.280;27.070;2023-05-02T04:27:55;100076.29;;;6.96;62.54
63691;BME280;49837;57.280;27.070;2023-05-02T04:28:56;100076.61;;;7.01;61.81
63691;BME280;49837;57.280;27.070;2023-05-02T04:29:56;100077.28;;;7.06;60.95
63691;BME280;49837;57.280;27.070;2023-05-02T04:30:57;100074.55;;;7.11;61.03
63691;BME280;49837;57.280;27.070;2023-05-02T04:31:57;100080.48;;;7.21;60.93
63691;BME280;49837;57.280;27.070;2023-05-02T04:32:57;100072.82;;;7.24;61.14
63691;BME280;49837;57.280;27.070;2023-05-02T04:33:58;100075.79;;;7.25;60.58
63691;BME280;49837;57.280;27.070;2023-05-02T04:34:58;100070.93;;;7.28;60.36
63691;BME280;49837;57.280;27.070;2023-05-02T04:35:59;100061.32;;;7.31;60.08
63691;BME280;49837;57.280;27.070;2023-05-02T04:37:00;100065.12;;;7.33;60.83
63691;BME280;49837;57.280;27.070;2023-05-02T04:37:59;100066.2;;;7.38;59.83
63691;BME280;49837;57.280;27.070;2023-05-02T04:39:00;100064.58;;;7.45;59.96
63691;BME280;49837;57.280;27.070;2023-05-02T04:40:00;100062.61;;;7.47;59.55
63691;BME280;49837;57.280;27.070;2023-05-02T04:41:00;100068.7;;;7.6;58.81
63691;BME280;49837;57.280;27.070;2023-05-02T04:42:01;100062.75;;;7.62;59.43
63691;BME280;49837;57.280;27.070;2023-05-02T04:43:01;100055.85;;;7.67;58.41
63691;BME280;49837;57.280;27.070;2023-05-02T04:44:01;100062.16;;;7.72;58.31
63691;BME280;49837;57.280;27.070;2023-05-02T04:45:02;100061.74;;;7.76;58.37
63691;BME280;49837;57.280;27.070;2023-05-02T04:46:02;100059.33;;;7.79;58.91
63691;BME280;49837;57.280;27.070;2023-05-02T04:47:02;100061.76;;;7.87;58.85
63691;BME280;49837;57.280;27.070;2023-05-02T04:48:03;100054.25;;;7.96;58.61
63691;BME280;49837;57.280;27.070;2023-05-02T04:49:03;100054.11;;;8.03;58.71
63691;BME280;49837;57.280;27.070;2023-05-02T04:50:04;100055.91;;;8.01;57.87
63691;BME280;49837;57.280;27.070;2023-05-02T04:51:04;100049.77;;;8.09;57.35
63691;BME280;49837;57.280;27.070;2023-05-02T04:52:04;100055.49;;;8.16;57.29
63691;BME280;49837;57.280;27.070;2023-05-02T04:53:05;100049.67;;;8.21;56.41
63691;BME280;49837;57.280;27.070;2023-05-02T04:54:05;100048.06;;;8.3;55.91
63691;BME280;49837;57.280;27.070;2023-05-02T04:55:06;100049.83;;;8.36;56.52
63691;BME280;49837;57.280;27.070;2023-05-02T04:56:06;100050.36;;;8.43;56.71
63691;BME280;49837;57.280;27.070;2023-05-02T04:57:06;100046.61;;;8.43;55.89
63691;BME280;49837;57.280;27.070;2023-05-02T04:58:07;100051.46;;;8.53;55.72
63691;BME280;49837;57.280;27.070;2023-05-02T04:59:07;100052.3;;;8.6;55.67
63691;BME280;49837;57.280;27.070;2023-05-02T05:00:08;100041.87;;;8.66;55.2
63691;BME280;49837;57.280;27.070;2023-05-02T05:01:08;100043.91;;;8.7;55.67
63691;BME280;49837;57.280;27.070;2023-05-02T05:02:08;100046.52;;;8.76;55.45
63691;BME280;49837;57.280;27.070;2023-05-02T05:03:09;100044.67;;;8.7;55.24
63691;BME280;49837;57.280;27.070;2023-05-02T05:04:09;100047.44;;;8.8;54.78
63691;BME280;49837;57.280;27.070;2023-05-02T05:05:09;100042.64;;;8.81;54.64
63691;BME280;49837;57.280;27.070;2023-05-02T05:06:10;100036.84;;;8.81;54.07
63691;BME280;49837;57.280;27.070;2023-05-02T05:07:10;100040.83;;;8.91;54.37
63691;BME280;49837;57.280;27.070;2023-05-02T05:08:11;100041.09;;;9.0;54.57
63691;BME280;49837;57.280;27.070;2023-05-02T05:09:11;100048.74;;;9.04;53.5
63691;BME280;49837;57.280;27.070;2023-05-02T05:10:11;100041.2;;;9.06;53.62
63691;BME280;49837;57.280;27.070;2023-05-02T05:11:12;100035.78;;;9.06;53.69
63691;BME280;49837;57.280;27.070;2023-05-02T05:12:12;100043.17;;;9.16;53.88
63691;BME280;49837;57.280;27.070;2023-05-02T05:13:13;100042.86;;;9.19;54.68
63691;BME280;49837;57.280;27.070;2023-05-02T05:14:13;100039.41;;;9.21;53.62
63691;BME280;49837;57.280;27.070;2023-05-02T05:15:14;100038.98;;;9.21;52.9
63691;BME280;49837;57.280;27.070;2023-05-02T05:16:14;100031.83;;;9.27;52.87
63691;BME280;49837;57.280;27.070;2023-05-02T05:17:14;100033.12;;;9.36;52.49
63691;BME280;49837;57.280;27.070;2023-05-02T05:18:15;100033.44;;;9.38;52.28
63691;BME280;49837;57.280;27.070;2023-05-02T05:19:15;100031.17;;;9.43;52.71
63691;BME280;49837;57.280;27.070;2023-05-02T05:20:16;100031.36;;;9.48;52.94
63691;BME280;49837;57.280;27.070;2023-05-02T05:21:16;100030.25;;;9.58;52.96
63691;BME280;49837;57.280;27.070;2023-05-02T05:22:16;100026.55;;;9.8;52.38
63691;BME280;49837;57.280;27.070;2023-05-02T05:23:17;100023.97;;;9.83;52.32
63691;BME280;49837;57.280;27.070;2023-05-02T05:24:17;100024.49;;;9.88;52.81
63691;BME280;49837;57.280;27.070;2023-05-02T05:25:17;100023.64;;;9.83;51.57
63691;BME280;49837;57.280;27.070;2023-05-02T05:26:18;100019.97;;;9.83;51.84
63691;BME280;49837;57.280;27.070;2023-05-02T05:27:18;100022.31;;;9.94;51.77
63691;BME280;49837;57.280;27.070;2023-05-02T05:28:19;100017.44;;;10.01;51.18
63691;BME280;49837;57.280;27.070;2023-05-02T05:29:19;100017.3;;;10.0;51.04
63691;BME280;49837;57.280;27.070;2023-05-02T05:30:20;100017.92;;;10.07;51.07
63691;BME280;49837;57.280;27.070;2023-05-02T05:31:20;100017.28;;;10.15;51.15
63691;BME280;49837;57.280;27.070;2023-05-02T05:32:20;100018.43;;;10.1;50.69
63691;BME280;49837;57.280;27.070;2023-05-02T05:33:21;100013.86;;;10.18;50.46
63691;BME280;49837;57.280;27.070;2023-05-02T05:34:21;100019.16;;;10.16;50.69
63691;BME280;49837;57.280;27.070;2023-05-02T05:35:23;100018.94;;;10.24;51.1
63691;BME280;49837;57.280;27.070;2023-05-02T05:36:22;100013.62;;;10.17;50.73
63691;BME280;49837;57.280;27.070;2023-05-02T05:37:22;100011.12;;;10.17;50.51
63691;BME280;49837;57.280;27.070;2023-05-02T05:38:23;100010.94;;;10.23;50.3
63691;BME280;49837;57.280;27.070;2023-05-02T05:39:23;100008.84;;;10.24;49.99
63691;BME280;49837;57.280;27.070;2023-05-02T05:40:24;100006.73;;;10.24;50.4
63691;BME280;49837;57.280;27.070;2023-05-02T05:41:24;100004.22;;;10.3;50.05
63691;BME280;49837;57.280;27.070;2023-05-02T05:42:24;100005.17;;;10.26;49.9
63691;BME280;49837;57.280;27.070;2023-05-02T05:43:25;100008.66;;;10.35;50.17
63691;BME280;49837;57.280;27.070;2023-05-02T05:44:25;100005.66;;;10.35;49.86
63691;BME280;49837;57.280;27.070;2023-05-02T05:45:25;100002.42;;;10.32;49.76
63691;BME280;49837;57.280;27.070;2023-05-02T05:46:26;100000.35;;;10.31;49.71
63691;BME280;49837;57.280;27.070;2023-05-02T05:47:27;100002.39;;;10.33;49.89
63691;BME280;49837;57.280;27.070;2023-05-02T05:48:27;100000.89;;;10.35;50.45
63691;BME280;49837;57.280;27.070;2023-05-02T05:49:27;100001.8;;;10.4;50.69
63691;BME280;49837;57.280;27.070;2023-05-02T05:50:28;100000.13;;;10.44;49.87
63691;BME280;49837;57.280;27.070;2023-05-02T05:51:28;99998.09;;;10.4;50.01
63691;BME280;49837;57.280;27.070;2023-05-02T05:52:29;100002.06;;;10.44;49.91